createdAt,value
2022-11-28T00:00:19.620Z,8.20
2022-11-28T00:03:12.067Z,12.40
2022-11-28T00:06:08.347Z,11.70
2022-11-28T00:09:02.460Z,11.60
2022-11-28T00:11:56.900Z,19.50
2022-11-28T00:14:49.537Z,14.50
2022-11-28T00:17:41.882Z,17.10
2022-11-28T00:20:35.329Z,18.60
2022-11-28T00:23:28.495Z,13.50
2022-11-28T00:26:23.224Z,14.90
2022-11-28T00:29:16.075Z,16.20
2022-11-28T00:32:10.280Z,15.70
2022-11-28T00:35:02.870Z,14.00
2022-11-28T00:37:56.490Z,14.20
2022-11-28T00:40:49.055Z,14.10
2022-11-28T00:43:41.786Z,9.30
2022-11-28T00:46:34.457Z,11.90
2022-11-28T00:49:26.912Z,12.80
2022-11-28T00:52:20.078Z,16.20
2022-11-28T00:55:12.941Z,12.00
2022-11-28T00:58:05.536Z,8.30
2022-11-28T01:00:57.980Z,8.40
2022-11-28T01:03:51.603Z,11.20
2022-11-28T01:06:46.033Z,12.60
2022-11-28T01:09:38.913Z,12.20
2022-11-28T01:12:31.182Z,13.30
2022-11-28T01:15:23.577Z,9.70
2022-11-28T01:18:15.904Z,11.80
2022-11-28T01:21:09.191Z,9.80
2022-11-28T01:24:01.553Z,12.80
2022-11-28T01:26:53.786Z,11.10
2022-11-28T01:29:45.980Z,13.60
2022-11-28T01:32:38.303Z,12.80
2022-11-28T01:35:33.269Z,15.50
2022-11-28T01:38:26.584Z,11.10
2022-11-28T01:41:21.268Z,19.00
2022-11-28T01:44:44.447Z,14.30
2022-11-28T01:47:37.309Z,14.10
2022-11-28T01:50:31.160Z,11.00
2022-11-28T01:53:24.279Z,14.20
2022-11-28T01:56:20.505Z,14.80
2022-11-28T01:59:15.187Z,12.80
2022-11-28T02:02:15.041Z,17.40
2022-11-28T02:05:09.967Z,14.20
2022-11-28T02:08:02.234Z,16.00
2022-11-28T02:11:11.360Z,17.40
2022-11-28T02:14:15.751Z,16.40
2022-11-28T02:17:18.245Z,16.30
2022-11-28T02:20:42.749Z,15.00
2022-11-28T02:23:58.334Z,14.50
2022-11-28T02:27:49.069Z,14.90
2022-11-28T02:33:48.735Z,16.70
2022-11-28T02:36:52.283Z,13.20
2022-11-28T02:39:56.728Z,15.40
2022-11-28T02:43:01.091Z,14.70
2022-11-28T02:46:01.446Z,19.90
2022-11-28T02:49:00.763Z,11.90
2022-11-28T02:52:01.149Z,12.40
2022-11-28T02:57:49.275Z,13.60
2022-11-28T03:00:44.283Z,12.80
2022-11-28T03:04:04.681Z,17.90
2022-11-28T03:07:11.613Z,14.90
2022-11-28T03:10:20.945Z,14.30
2022-11-28T03:13:23.563Z,13.80
2022-11-28T03:16:26.545Z,12.10
2022-11-28T03:19:27.970Z,12.90
2022-11-28T03:22:29.875Z,13.90
2022-11-28T03:25:30.604Z,13.00
2022-11-28T03:28:30.022Z,13.90
2022-11-28T03:31:27.521Z,13.80
2022-11-28T03:34:24.782Z,12.50
2022-11-28T03:37:21.790Z,13.10
2022-11-28T03:40:20.623Z,9.80
2022-11-28T03:43:18.076Z,12.90
2022-11-28T03:46:13.868Z,13.10
2022-11-28T03:49:09.916Z,14.00
2022-11-28T03:52:05.125Z,10.80
2022-11-28T03:54:59.985Z,11.90
2022-11-28T03:57:59.912Z,10.80
2022-11-28T04:01:10.307Z,12.30
2022-11-28T04:04:18.068Z,13.30
2022-11-28T04:07:25.113Z,14.20
2022-11-28T04:10:22.665Z,13.00
2022-11-28T04:13:22.378Z,10.30
2022-11-28T04:16:21.289Z,11.10
2022-11-28T04:19:18.065Z,13.20
2022-11-28T04:22:16.005Z,10.70
2022-11-28T04:25:12.482Z,7.50
2022-11-28T04:28:10.537Z,14.40
2022-11-28T04:31:06.071Z,12.90
2022-11-28T04:34:04.284Z,16.80
2022-11-28T04:36:59.253Z,12.00
2022-11-28T04:39:53.996Z,16.00
2022-11-28T04:42:53.043Z,15.10
2022-11-28T04:45:49.318Z,12.20
2022-11-28T04:48:41.713Z,13.90
2022-11-28T04:51:40.889Z,13.20
2022-11-28T04:54:39.626Z,15.90
2022-11-28T04:57:36.847Z,14.90
2022-11-28T05:00:29.663Z,13.20
2022-11-28T05:03:22.758Z,10.80
2022-11-28T05:06:27.294Z,10.70
2022-11-28T05:09:19.350Z,11.60
2022-11-28T05:12:11.753Z,15.30
2022-11-28T05:15:04.136Z,10.10
2022-11-28T05:17:58.607Z,14.90
2022-11-28T05:20:50.931Z,11.40
2022-11-28T05:23:45.028Z,12.40
2022-11-28T05:26:38.219Z,11.90
2022-11-28T05:29:32.652Z,14.10
2022-11-28T05:32:25.095Z,11.70
2022-11-28T05:35:17.352Z,7.80
2022-11-28T05:38:13.542Z,7.80
2022-11-28T05:41:07.361Z,12.50
2022-11-28T05:44:05.413Z,12.50
2022-11-28T05:46:57.979Z,9.80
2022-11-28T05:49:50.958Z,12.80
2022-11-28T05:52:43.581Z,8.40
2022-11-28T05:55:40.214Z,11.10
2022-11-28T05:58:37.714Z,6.30
2022-11-28T06:01:39.675Z,6.90
2022-11-28T06:04:32.433Z,8.80
2022-11-28T06:07:25.055Z,10.00
2022-11-28T06:10:22.832Z,8.60
2022-11-28T06:13:15.645Z,11.60
2022-11-28T06:16:12.343Z,7.40
2022-11-28T06:19:06.745Z,10.40
2022-11-28T06:21:59.627Z,8.20
2022-11-28T06:24:51.993Z,7.30
2022-11-28T06:27:47.342Z,8.20
2022-11-28T06:30:39.864Z,6.00
2022-11-28T06:33:32.430Z,7.30
2022-11-28T06:36:25.247Z,8.70
2022-11-28T06:39:18.955Z,9.70
2022-11-28T06:42:11.268Z,6.60
2022-11-28T06:45:04.661Z,8.80
2022-11-28T06:47:57.166Z,3.70
2022-11-28T06:50:50.400Z,9.90
2022-11-28T06:53:43.121Z,7.00
2022-11-28T06:56:35.779Z,8.70
2022-11-28T06:59:28.025Z,6.60
2022-11-28T07:02:20.402Z,7.90
2022-11-28T07:05:13.113Z,9.30
2022-11-28T07:08:07.740Z,8.80
2022-11-28T07:11:08.199Z,12.60
2022-11-28T07:16:51.727Z,9.60
2022-11-28T07:19:44.424Z,6.80
2022-11-28T07:22:39.454Z,6.50
2022-11-28T07:25:34.621Z,12.70
2022-11-28T07:28:27.047Z,7.40
2022-11-28T07:31:21.260Z,7.50
2022-11-28T07:34:14.200Z,8.90
2022-11-28T07:37:06.369Z,7.30
2022-11-28T07:39:58.687Z,8.50
2022-11-28T07:42:51.241Z,9.00
2022-11-28T07:45:59.965Z,7.40
2022-11-28T07:48:52.898Z,11.00
2022-11-28T07:51:45.317Z,9.70
2022-11-28T07:54:37.871Z,7.30
2022-11-28T07:57:30.997Z,7.00
2022-11-28T08:00:25.351Z,7.80
2022-11-28T08:03:17.226Z,11.20
2022-11-28T08:06:12.501Z,10.20
2022-11-28T08:09:05.242Z,8.60
2022-11-28T08:11:57.820Z,9.50
2022-11-28T08:14:50.416Z,12.90
2022-11-28T08:17:44.107Z,7.30
2022-11-28T08:20:38.995Z,8.10
2022-11-28T08:23:31.292Z,7.90
2022-11-28T08:26:29.062Z,9.60
2022-11-28T08:29:22.882Z,7.50
2022-11-28T08:32:15.563Z,11.00
2022-11-28T08:35:08.694Z,14.30
2022-11-28T08:38:02.756Z,9.90
2022-11-28T08:41:03.816Z,12.40
2022-11-28T08:43:56.445Z,13.80
2022-11-28T08:46:48.854Z,11.20
2022-11-28T08:49:41.524Z,13.40
2022-11-28T08:52:34.366Z,9.50
2022-11-28T08:55:32.093Z,15.30
2022-11-28T08:58:25.679Z,10.20
2022-11-28T09:01:23.044Z,11.30
2022-11-28T09:04:15.286Z,9.70
2022-11-28T09:07:08.163Z,9.20
2022-11-28T09:10:00.750Z,7.20
2022-11-28T09:12:53.437Z,8.20
2022-11-28T09:15:51.211Z,7.30
2022-11-28T09:18:45.258Z,6.50
2022-11-28T09:21:38.915Z,10.10
2022-11-28T09:24:32.238Z,9.40
2022-11-28T09:27:24.530Z,7.70
2022-11-28T09:30:18.236Z,8.00
2022-11-28T09:33:12.519Z,8.40
2022-11-28T09:36:09.723Z,6.00
2022-11-28T09:39:02.622Z,11.20
2022-11-28T09:42:09.400Z,6.10
2022-11-28T09:45:06.721Z,10.30
2022-11-28T09:48:04.157Z,6.40
2022-11-28T09:51:03.500Z,8.50
2022-11-28T09:54:08.258Z,7.50
2022-11-28T09:57:03.180Z,7.80
2022-11-28T09:59:55.813Z,6.80
2022-11-28T10:02:56.623Z,6.70
2022-11-28T10:06:18.324Z,9.20
2022-11-28T10:09:42.569Z,8.10
2022-11-28T10:12:49.789Z,7.70
2022-11-28T10:15:54.870Z,8.90
2022-11-28T10:18:52.322Z,10.00
2022-11-28T10:21:49.062Z,9.70
2022-11-28T10:24:46.202Z,9.00
2022-11-28T10:27:39.260Z,9.00
2022-11-28T10:30:35.236Z,8.70
2022-11-28T10:33:30.497Z,9.90
2022-11-28T10:36:29.258Z,10.00
2022-11-28T10:39:21.472Z,9.20
2022-11-28T10:42:20.831Z,7.40
2022-11-28T10:45:24.760Z,11.80
2022-11-28T10:48:39.513Z,10.70
2022-11-28T10:51:44.563Z,9.80
2022-11-28T10:54:57.437Z,8.30
2022-11-28T10:57:57.691Z,8.20
2022-11-28T11:00:50.966Z,8.00
2022-11-28T11:03:43.548Z,7.90
2022-11-28T11:06:41.801Z,9.20
2022-11-28T11:09:40.314Z,7.40
2022-11-28T11:12:35.745Z,6.00
2022-11-28T11:15:33.914Z,6.90
2022-11-28T11:18:28.845Z,6.70
2022-11-28T11:21:23.180Z,7.80
2022-11-28T11:24:19.388Z,5.50
2022-11-28T11:27:22.631Z,5.70
2022-11-28T11:30:28.600Z,5.60
2022-11-28T11:33:21.527Z,5.60
2022-11-28T11:36:26.308Z,6.00
2022-11-28T11:39:25.765Z,6.30
2022-11-28T11:42:24.115Z,3.80
2022-11-28T11:45:30.159Z,3.90
2022-11-28T11:48:38.070Z,2.40
2022-11-28T11:51:38.018Z,4.50
2022-11-28T11:54:31.792Z,4.50
2022-11-28T11:57:33.164Z,5.60
2022-11-28T12:00:33.660Z,2.70
2022-11-28T12:03:32.556Z,3.00
2022-11-28T12:06:29.658Z,2.10
2022-11-28T12:09:28.105Z,3.50
2022-11-28T12:12:23.954Z,3.40
2022-11-28T12:15:27.480Z,3.60
2022-11-28T12:18:29.403Z,3.50
2022-11-28T12:21:31.184Z,6.10
2022-11-28T12:24:27.951Z,3.40
2022-11-28T12:27:34.336Z,4.60
2022-11-28T12:30:41.907Z,5.00
2022-11-28T12:33:46.874Z,6.00
2022-11-28T12:36:46.119Z,3.60
2022-11-28T12:39:52.113Z,3.70
2022-11-28T12:42:58.837Z,4.40
2022-11-28T12:46:00.986Z,5.10
2022-11-28T12:49:10.213Z,3.90
2022-11-28T12:52:14.518Z,5.80
2022-11-28T12:55:22.646Z,4.60
2022-11-28T12:58:21.505Z,4.50
2022-11-28T13:01:32.212Z,6.10
2022-11-28T13:04:45.441Z,8.40
2022-11-28T13:07:50.194Z,6.20
2022-11-28T13:10:47.128Z,7.90
2022-11-28T13:13:45.817Z,6.70
2022-11-28T13:16:47.030Z,5.50
2022-11-28T13:19:49.744Z,6.90
2022-11-28T13:22:54.698Z,4.00
2022-11-28T13:25:53.178Z,4.60
2022-11-28T13:28:53.818Z,5.80
2022-11-28T13:31:54.986Z,4.20
2022-11-28T13:34:50.701Z,4.10
2022-11-28T13:41:08.994Z,4.90
2022-11-28T13:44:17.760Z,4.40
2022-11-28T13:47:31.097Z,4.90
2022-11-28T13:50:42.222Z,5.30
2022-11-28T13:53:34.015Z,7.90
2022-11-28T13:56:30.209Z,8.50
2022-11-28T13:59:25.608Z,6.20
2022-11-28T14:02:25.438Z,6.20
2022-11-28T14:05:35.557Z,6.20
2022-11-28T14:11:49.766Z,6.00
2022-11-28T14:15:00.010Z,6.20
2022-11-28T14:18:31.542Z,6.20
2022-11-28T14:21:34.159Z,6.10
2022-11-28T14:24:53.267Z,13.90
2022-11-28T14:27:54.799Z,8.70
2022-11-28T14:30:49.896Z,10.70
2022-11-28T14:33:45.629Z,9.70
2022-11-28T14:36:42.193Z,6.80
2022-11-28T14:39:37.923Z,11.20
2022-11-28T14:45:53.255Z,8.40
2022-11-28T14:49:05.414Z,8.70
2022-11-28T14:52:38.835Z,7.10
2022-11-28T14:55:32.464Z,8.60
2022-11-28T14:58:24.866Z,8.80
2022-11-28T15:01:26.345Z,8.60
2022-11-28T15:04:50.984Z,9.30
2022-11-28T15:08:01.268Z,7.50
2022-11-28T15:10:58.727Z,9.70
2022-11-28T15:14:06.105Z,12.80
2022-11-28T15:17:03.217Z,13.60
2022-11-28T15:19:56.080Z,12.00
2022-11-28T15:22:47.986Z,14.70
2022-11-28T15:25:40.423Z,14.20
2022-11-28T15:28:35.737Z,14.50
2022-11-28T15:31:28.716Z,14.80
2022-11-28T15:34:30.454Z,12.70
2022-11-28T15:37:24.736Z,12.20
2022-11-28T15:40:21.811Z,10.80
2022-11-28T15:43:17.585Z,13.70
2022-11-28T15:46:15.586Z,14.20
2022-11-28T15:49:23.432Z,11.70
2022-11-28T15:52:19.933Z,13.00
2022-11-28T15:55:20.432Z,13.90
2022-11-28T15:58:21.859Z,13.30
2022-11-28T16:01:18.850Z,15.20
2022-11-28T16:04:17.243Z,17.00
2022-11-28T16:07:16.772Z,13.60
2022-11-28T16:10:21.567Z,12.30
2022-11-28T16:13:20.118Z,17.80
2022-11-28T16:16:16.416Z,16.20
2022-11-28T16:19:26.120Z,16.20
2022-11-28T16:22:23.236Z,15.40
2022-11-28T16:25:22.205Z,15.90
2022-11-28T16:28:32.617Z,15.70
2022-11-28T16:31:25.165Z,13.20
2022-11-28T16:34:17.642Z,17.70
2022-11-28T16:37:13.683Z,17.20
2022-11-28T16:40:17.330Z,20.10
2022-11-28T16:43:22.548Z,19.20
2022-11-28T16:46:25.660Z,19.70
2022-11-28T16:49:35.950Z,20.70
2022-11-28T16:52:45.899Z,18.70
2022-11-28T16:55:44.892Z,21.30
2022-11-28T16:58:36.816Z,23.80
2022-11-28T17:01:30.394Z,25.10
2022-11-28T17:04:27.357Z,32.00
2022-11-28T17:07:22.026Z,31.40
2022-11-28T17:10:16.615Z,37.30
2022-11-28T17:13:10.552Z,34.70
2022-11-28T17:16:02.696Z,31.30
2022-11-28T17:18:55.251Z,34.10
2022-11-28T17:21:51.898Z,33.90
2022-11-28T17:24:44.693Z,38.40
2022-11-28T17:27:36.874Z,30.60
2022-11-28T17:30:29.217Z,28.90
2022-11-28T17:33:23.212Z,30.20
2022-11-28T17:36:15.919Z,30.30
2022-11-28T17:39:08.293Z,32.60
2022-11-28T17:42:02.492Z,31.80
2022-11-28T17:44:54.915Z,36.50
2022-11-28T17:47:48.538Z,36.00
2022-11-28T17:50:41.595Z,51.70
2022-11-28T17:53:37.966Z,66.40
2022-11-28T17:56:31.682Z,71.10
2022-11-28T17:59:27.177Z,74.00
2022-11-28T18:02:19.272Z,61.10
2022-11-28T18:05:12.206Z,58.40
2022-11-28T18:08:05.271Z,56.20
2022-11-28T18:11:08.932Z,41.00
2022-11-28T18:16:52.124Z,31.70
2022-11-28T18:19:44.750Z,35.00
2022-11-28T18:22:37.269Z,34.10
2022-11-28T18:25:30.618Z,39.70
2022-11-28T18:28:23.238Z,32.30
2022-11-28T18:31:18.085Z,39.00
2022-11-28T18:34:10.929Z,28.80
2022-11-28T18:37:05.296Z,27.30
2022-11-28T18:39:57.137Z,27.50
2022-11-28T18:42:49.340Z,22.60
2022-11-28T18:45:41.809Z,25.00
2022-11-28T18:48:34.156Z,23.00
2022-11-28T18:51:29.822Z,24.20
2022-11-28T18:54:22.239Z,22.50
2022-11-28T18:57:14.635Z,23.80
2022-11-28T19:00:08.861Z,18.90
2022-11-28T19:03:00.869Z,19.40
2022-11-28T19:05:54.103Z,21.10
2022-11-28T19:08:46.861Z,20.80
2022-11-28T19:11:39.506Z,18.20
2022-11-28T19:14:32.850Z,24.10
2022-11-28T19:17:25.223Z,18.90
2022-11-28T19:20:17.618Z,19.60
2022-11-28T19:23:10.096Z,17.20
2022-11-28T19:26:05.342Z,18.10
2022-11-28T19:28:59.949Z,16.40
2022-11-28T19:31:52.122Z,16.30
2022-11-28T19:34:44.357Z,18.10
2022-11-28T19:37:38.621Z,18.50
2022-11-28T19:40:33.965Z,17.10
2022-11-28T19:43:26.472Z,20.00
2022-11-28T19:46:18.712Z,17.30
2022-11-28T19:49:16.855Z,20.90
2022-11-28T19:52:09.301Z,22.60
2022-11-28T19:55:01.825Z,25.20
2022-11-28T19:57:54.175Z,29.50
2022-11-28T20:00:46.936Z,32.30
2022-11-28T20:03:40.734Z,29.90
2022-11-28T20:06:34.606Z,38.00
2022-11-28T20:09:27.784Z,33.70
2022-11-28T20:12:19.846Z,35.50
2022-11-28T20:15:18.035Z,39.20
2022-11-28T20:18:11.762Z,36.70
2022-11-28T20:21:10.167Z,33.20
2022-11-28T20:24:05.311Z,28.90
2022-11-28T20:26:59.794Z,27.40
2022-11-28T20:29:52.364Z,31.00
2022-11-28T20:32:44.513Z,30.70
2022-11-28T20:35:36.571Z,30.50
2022-11-28T20:38:30.696Z,31.80
2022-11-28T20:41:25.098Z,30.60
2022-11-28T20:44:17.794Z,33.30
2022-11-28T20:47:11.808Z,34.80
2022-11-28T20:50:03.919Z,30.70
2022-11-28T20:52:55.974Z,27.80
2022-11-28T20:55:48.086Z,28.70
2022-11-28T20:58:40.393Z,26.70
2022-11-28T21:01:34.455Z,22.80
2022-11-28T21:04:26.942Z,22.60
2022-11-28T21:07:19.597Z,17.50
2022-11-28T21:10:12.747Z,19.90
2022-11-28T21:13:05.360Z,20.40
2022-11-28T21:15:58.675Z,21.30
2022-11-28T21:18:51.290Z,23.80
2022-11-28T21:21:44.210Z,20.00
2022-11-28T21:24:36.263Z,22.30
2022-11-28T21:27:28.432Z,24.30
2022-11-28T21:30:20.947Z,25.30
2022-11-28T21:33:14.883Z,23.10
2022-11-28T21:36:08.151Z,21.90
2022-11-28T21:39:01.871Z,20.20
2022-11-28T21:41:53.620Z,18.90
2022-11-28T21:44:45.813Z,20.10
2022-11-28T21:47:38.082Z,20.90
2022-11-28T21:50:30.562Z,17.80
2022-11-28T21:53:23.015Z,21.70
2022-11-28T21:56:15.321Z,16.30
2022-11-28T21:59:08.278Z,21.70
2022-11-28T22:02:00.545Z,17.30
2022-11-28T22:04:52.874Z,18.40
2022-11-28T22:07:45.066Z,22.80
2022-11-28T22:10:38.303Z,18.40
2022-11-28T22:13:32.231Z,19.30
2022-11-28T22:16:26.153Z,24.30
2022-11-28T22:19:18.476Z,20.40
2022-11-28T22:22:10.762Z,19.10
2022-11-28T22:25:04.064Z,21.90
2022-11-28T22:27:56.274Z,20.70
2022-11-28T22:30:48.808Z,22.50
2022-11-28T22:33:42.850Z,25.90
2022-11-28T22:36:34.937Z,20.60
2022-11-28T22:39:28.837Z,19.90
2022-11-28T22:42:20.983Z,19.90
2022-11-28T22:45:13.655Z,18.10
2022-11-28T22:48:06.486Z,18.90
2022-11-28T22:50:58.623Z,19.10
2022-11-28T22:53:53.338Z,21.30
2022-11-28T22:56:45.459Z,19.20
2022-11-28T22:59:38.851Z,18.90
2022-11-28T23:02:31.384Z,21.40
2022-11-28T23:05:23.730Z,20.00
2022-11-28T23:08:15.912Z,20.40
2022-11-28T23:11:09.795Z,20.30
2022-11-28T23:14:03.197Z,16.80
2022-11-28T23:16:55.346Z,17.20
2022-11-28T23:19:48.297Z,20.30
2022-11-28T23:22:40.504Z,20.80
2022-11-28T23:25:33.329Z,21.30
2022-11-28T23:28:25.647Z,23.00
2022-11-28T23:31:20.463Z,21.50
2022-11-28T23:34:13.409Z,20.90
2022-11-28T23:37:05.893Z,24.00
2022-11-28T23:39:58.071Z,21.20
2022-11-28T23:42:50.240Z,24.50
2022-11-28T23:45:42.480Z,19.00
2022-11-28T23:48:35.148Z,24.20
2022-11-28T23:51:28.645Z,22.60
2022-11-28T23:54:20.883Z,19.20
2022-11-28T23:57:13.206Z,21.90
